Etusivu
METAR-TAF:

METAR-TAF

Lentoasemat :

Concordia, Kansas, Yhdysvallat

Leveyspiiri: 39-33-05N, Pituuspiiri: 097-39-02W, korkeus merenpinnasta: 453 m

Tämänhetkinen sää

Tämä raportti tehtiin 49 minuuttia sitten, kello 14.55 UTC
Tuuli 12 kn idästä/kaakosta puuskistuen 19 kn:hen
Lämpötila 27°C
Kosteus 58%
Ilmanpaine 1018 hPa
Näkyvyys: 16.1 km
selkeää

METAR: KCNK 141455Z AUTO 11012G19KT 10SM CLR 27/18 A3007 RMK AO2 SLP163 T02720183 51010 $

Aika: 10:44 (15:44 UTC)


TAF: puuttuu

Säähavainnot ja -ennusteet yli 4000 lentoasemalta (METAR- ja TAF-raportit).

Käytössä olevat sääasemat on merkitty karttaan keltaisilla ja punaisilla pisteillä.

Aseta hiiri pisteen päälle nähdäksesi sääaseman nimen.

Klikkaa sitten nähdäksesi säähavainnot ja -ennusteet.

Kartan vaihtaminen: klikkaa mustalla rastilla varustettuja vihreitä pisteitä, niin voit zoomata sisään; viivalla varustettua vihreää pistettä, niin voit zoomata ulos tai vihreitä nuolia, niin pääset viereisille kartoille.


METAR-TAF: